sensor_id;sensor_type;location;lat;lon;timestamp;temperature;humidity
23231;DHT22;11784;49.818;8.632;2023-08-07T00:00:29;16.80;98.50
23231;DHT22;11784;49.818;8.632;2023-08-07T00:02:54;16.80;98.50
23231;DHT22;11784;49.818;8.632;2023-08-07T00:05:20;16.80;98.50
23231;DHT22;11784;49.818;8.632;2023-08-07T00:07:45;16.80;98.60
23231;DHT22;11784;49.818;8.632;2023-08-07T00:10:11;16.80;98.40
23231;DHT22;11784;49.818;8.632;2023-08-07T00:12:37;16.80;97.90
23231;DHT22;11784;49.818;8.632;2023-08-07T00:15:03;16.80;98.10
23231;DHT22;11784;49.818;8.632;2023-08-07T00:17:29;16.70;98.10
23231;DHT22;11784;49.818;8.632;2023-08-07T00:19:55;16.70;97.60
23231;DHT22;11784;49.818;8.632;2023-08-07T00:22:20;16.80;97.40
23231;DHT22;11784;49.818;8.632;2023-08-07T00:24:48;16.70;97.60
23231;DHT22;11784;49.818;8.632;2023-08-07T00:27:13;16.70;97.60
23231;DHT22;11784;49.818;8.632;2023-08-07T00:29:40;16.70;97.60
23231;DHT22;11784;49.818;8.632;2023-08-07T00:32:05;16.60;97.40
23231;DHT22;11784;49.818;8.632;2023-08-07T00:34:31;16.60;97.40
23231;DHT22;11784;49.818;8.632;2023-08-07T00:36:57;16.60;97.90
23231;DHT22;11784;49.818;8.632;2023-08-07T00:39:23;16.60;97.90
23231;DHT22;11784;49.818;8.632;2023-08-07T00:41:48;16.60;97.60
23231;DHT22;11784;49.818;8.632;2023-08-07T00:44:14;16.60;97.00
23231;DHT22;11784;49.818;8.632;2023-08-07T00:46:39;16.60;97.00
23231;DHT22;11784;49.818;8.632;2023-08-07T00:49:06;16.60;97.40
23231;DHT22;11784;49.818;8.632;2023-08-07T00:51:32;16.50;97.60
23231;DHT22;11784;49.818;8.632;2023-08-07T00:53:58;16.50;97.10
23231;DHT22;11784;49.818;8.632;2023-08-07T00:56:26;16.50;97.30
23231;DHT22;11784;49.818;8.632;2023-08-07T00:58:51;16.60;97.70
23231;DHT22;11784;49.818;8.632;2023-08-07T01:01:18;16.60;97.40
23231;DHT22;11784;49.818;8.632;2023-08-07T01:03:44;16.60;97.20
23231;DHT22;11784;49.818;8.632;2023-08-07T01:06:09;16.60;96.60
23231;DHT22;11784;49.818;8.632;2023-08-07T01:08:35;16.70;97.00
23231;DHT22;11784;49.818;8.632;2023-08-07T01:11:21;16.70;96.50
23231;DHT22;11784;49.818;8.632;2023-08-07T01:14:08;16.70;96.40
23231;DHT22;11784;49.818;8.632;2023-08-07T01:17:06;16.70;96.40
23231;DHT22;11784;49.818;8.632;2023-08-07T01:19:34;16.60;96.50
23231;DHT22;11784;49.818;8.632;2023-08-07T01:22:16;16.60;96.30
23231;DHT22;11784;49.818;8.632;2023-08-07T01:24:45;16.60;96.10
23231;DHT22;11784;49.818;8.632;2023-08-07T01:29:44;16.60;96.50
23231;DHT22;11784;49.818;8.632;2023-08-07T01:32:14;16.60;96.30
23231;DHT22;11784;49.818;8.632;2023-08-07T01:34:42;16.60;95.70
23231;DHT22;11784;49.818;8.632;2023-08-07T01:37:10;16.60;95.70
23231;DHT22;11784;49.818;8.632;2023-08-07T01:39:37;16.60;95.90
23231;DHT22;11784;49.818;8.632;2023-08-07T01:42:03;16.60;95.70
23231;DHT22;11784;49.818;8.632;2023-08-07T01:44:30;16.60;95.90
23231;DHT22;11784;49.818;8.632;2023-08-07T01:46:56;16.50;95.80
23231;DHT22;11784;49.818;8.632;2023-08-07T01:49:21;16.60;95.20
23231;DHT22;11784;49.818;8.632;2023-08-07T01:51:47;16.50;95.10
23231;DHT22;11784;49.818;8.632;2023-08-07T01:54:12;16.50;95.40
23231;DHT22;11784;49.818;8.632;2023-08-07T01:56:38;16.50;95.10
23231;DHT22;11784;49.818;8.632;2023-08-07T01:59:03;16.50;95.50
23231;DHT22;11784;49.818;8.632;2023-08-07T02:01:29;16.50;95.30
23231;DHT22;11784;49.818;8.632;2023-08-07T02:03:54;16.50;95.30
23231;DHT22;11784;49.818;8.632;2023-08-07T02:06:20;16.40;95.10
23231;DHT22;11784;49.818;8.632;2023-08-07T02:08:45;16.40;95.00
23231;DHT22;11784;49.818;8.632;2023-08-07T02:11:11;16.40;95.20
23231;DHT22;11784;49.818;8.632;2023-08-07T02:13:36;16.50;95.50
23231;DHT22;11784;49.818;8.632;2023-08-07T02:16:02;16.50;95.10
23231;DHT22;11784;49.818;8.632;2023-08-07T02:18:28;16.50;95.20
23231;DHT22;11784;49.818;8.632;2023-08-07T02:20:53;16.50;94.70
23231;DHT22;11784;49.818;8.632;2023-08-07T02:23:19;16.60;94.20
23231;DHT22;11784;49.818;8.632;2023-08-07T02:25:44;16.50;94.50
23231;DHT22;11784;49.818;8.632;2023-08-07T02:28:11;16.60;94.40
23231;DHT22;11784;49.818;8.632;2023-08-07T02:30:36;16.60;93.70
23231;DHT22;11784;49.818;8.632;2023-08-07T02:33:02;16.60;94.00
23231;DHT22;11784;49.818;8.632;2023-08-07T02:35:27;16.60;93.90
23231;DHT22;11784;49.818;8.632;2023-08-07T02:37:53;16.60;93.70
23231;DHT22;11784;49.818;8.632;2023-08-07T02:40:18;16.60;93.90
23231;DHT22;11784;49.818;8.632;2023-08-07T02:42:44;16.60;94.10
23231;DHT22;11784;49.818;8.632;2023-08-07T02:45:10;16.60;93.30
23231;DHT22;11784;49.818;8.632;2023-08-07T02:47:36;16.60;93.30
23231;DHT22;11784;49.818;8.632;2023-08-07T02:50:01;16.60;93.50
23231;DHT22;11784;49.818;8.632;2023-08-07T02:52:27;16.60;93.30
23231;DHT22;11784;49.818;8.632;2023-08-07T02:54:53;16.60;93.30
23231;DHT22;11784;49.818;8.632;2023-08-07T02:57:18;16.60;93.10
23231;DHT22;11784;49.818;8.632;2023-08-07T02:59:44;16.60;92.50
23231;DHT22;11784;49.818;8.632;2023-08-07T03:02:09;16.60;92.90
23231;DHT22;11784;49.818;8.632;2023-08-07T03:04:35;16.60;92.60
23231;DHT22;11784;49.818;8.632;2023-08-07T03:07:00;16.60;92.50
23231;DHT22;11784;49.818;8.632;2023-08-07T03:09:27;16.60;92.40
23231;DHT22;11784;49.818;8.632;2023-08-07T03:11:53;16.50;92.40
23231;DHT22;11784;49.818;8.632;2023-08-07T03:14:19;16.50;92.50
23231;DHT22;11784;49.818;8.632;2023-08-07T03:16:45;16.50;92.60
23231;DHT22;11784;49.818;8.632;2023-08-07T03:19:10;16.50;92.80
23231;DHT22;11784;49.818;8.632;2023-08-07T03:21:36;16.50;92.90
23231;DHT22;11784;49.818;8.632;2023-08-07T03:24:01;16.50;92.20
23231;DHT22;11784;49.818;8.632;2023-08-07T03:26:27;16.50;92.50
23231;DHT22;11784;49.818;8.632;2023-08-07T03:28:52;16.40;92.60
23231;DHT22;11784;49.818;8.632;2023-08-07T03:31:18;16.50;92.30
23231;DHT22;11784;49.818;8.632;2023-08-07T03:33:43;16.40;92.50
23231;DHT22;11784;49.818;8.632;2023-08-07T03:36:09;16.40;92.40
23231;DHT22;11784;49.818;8.632;2023-08-07T03:38:34;16.40;92.50
23231;DHT22;11784;49.818;8.632;2023-08-07T03:41:00;16.40;92.40
23231;DHT22;11784;49.818;8.632;2023-08-07T03:43:25;16.40;92.40
23231;DHT22;11784;49.818;8.632;2023-08-07T03:45:55;16.40;92.60
23231;DHT22;11784;49.818;8.632;2023-08-07T03:48:23;16.30;92.30
23231;DHT22;11784;49.818;8.632;2023-08-07T03:50:49;16.30;92.40
23231;DHT22;11784;49.818;8.632;2023-08-07T03:53:14;16.30;92.40
23231;DHT22;11784;49.818;8.632;2023-08-07T03:55:40;16.30;92.50
23231;DHT22;11784;49.818;8.632;2023-08-07T03:58:07;16.30;92.80
23231;DHT22;11784;49.818;8.632;2023-08-07T04:00:33;16.30;92.80
23231;DHT22;11784;49.818;8.632;2023-08-07T04:02:58;16.40;92.80
23231;DHT22;11784;49.818;8.632;2023-08-07T04:05:24;16.40;92.90
23231;DHT22;11784;49.818;8.632;2023-08-07T04:07:49;16.40;92.60
23231;DHT22;11784;49.818;8.632;2023-08-07T04:10:15;16.40;92.40
23231;DHT22;11784;49.818;8.632;2023-08-07T04:12:40;16.40;92.20
23231;DHT22;11784;49.818;8.632;2023-08-07T04:15:07;16.40;92.20
23231;DHT22;11784;49.818;8.632;2023-08-07T04:17:34;16.30;92.30
23231;DHT22;11784;49.818;8.632;2023-08-07T04:19:59;16.30;92.40
23231;DHT22;11784;49.818;8.632;2023-08-07T04:22:25;16.30;92.20
23231;DHT22;11784;49.818;8.632;2023-08-07T04:24:50;16.40;92.20
23231;DHT22;11784;49.818;8.632;2023-08-07T04:27:16;16.40;92.30
23231;DHT22;11784;49.818;8.632;2023-08-07T04:29:41;16.40;92.00
23231;DHT22;11784;49.818;8.632;2023-08-07T04:32:07;16.40;92.20
23231;DHT22;11784;49.818;8.632;2023-08-07T04:34:33;16.40;91.90
23231;DHT22;11784;49.818;8.632;2023-08-07T04:36:58;16.40;91.60
23231;DHT22;11784;49.818;8.632;2023-08-07T04:39:24;16.40;91.90
23231;DHT22;11784;49.818;8.632;2023-08-07T04:41:49;16.40;92.00
23231;DHT22;11784;49.818;8.632;2023-08-07T04:44:16;16.30;92.00
23231;DHT22;11784;49.818;8.632;2023-08-07T04:46:41;16.40;92.00
23231;DHT22;11784;49.818;8.632;2023-08-07T04:49:07;16.40;91.80
23231;DHT22;11784;49.818;8.632;2023-08-07T04:51:32;16.40;91.50
23231;DHT22;11784;49.818;8.632;2023-08-07T04:53:58;16.40;91.60
23231;DHT22;11784;49.818;8.632;2023-08-07T04:56:23;16.40;91.50
23231;DHT22;11784;49.818;8.632;2023-08-07T04:58:49;16.40;91.30
23231;DHT22;11784;49.818;8.632;2023-08-07T05:01:14;16.40;91.40
23231;DHT22;11784;49.818;8.632;2023-08-07T05:03:40;16.40;91.60
23231;DHT22;11784;49.818;8.632;2023-08-07T05:06:06;16.40;91.60
23231;DHT22;11784;49.818;8.632;2023-08-07T05:08:31;16.40;91.70
23231;DHT22;11784;49.818;8.632;2023-08-07T05:10:57;16.40;91.40
23231;DHT22;11784;49.818;8.632;2023-08-07T05:13:23;16.40;91.60
23231;DHT22;11784;49.818;8.632;2023-08-07T05:15:48;16.40;91.40
23231;DHT22;11784;49.818;8.632;2023-08-07T05:18:14;16.40;91.70
23231;DHT22;11784;49.818;8.632;2023-08-07T05:20:40;16.50;91.60
23231;DHT22;11784;49.818;8.632;2023-08-07T05:23:05;16.50;91.50
23231;DHT22;11784;49.818;8.632;2023-08-07T05:25:31;16.60;91.40
23231;DHT22;11784;49.818;8.632;2023-08-07T05:27:56;16.60;91.00
23231;DHT22;11784;49.818;8.632;2023-08-07T05:30:22;16.60;91.20
23231;DHT22;11784;49.818;8.632;2023-08-07T05:32:47;16.60;91.10
23231;DHT22;11784;49.818;8.632;2023-08-07T05:35:13;16.60;91.00
23231;DHT22;11784;49.818;8.632;2023-08-07T05:37:38;16.50;91.00
23231;DHT22;11784;49.818;8.632;2023-08-07T05:40:05;16.50;91.10
23231;DHT22;11784;49.818;8.632;2023-08-07T05:42:31;16.50;91.10
23231;DHT22;11784;49.818;8.632;2023-08-07T05:44:57;16.50;91.60
23231;DHT22;11784;49.818;8.632;2023-08-07T05:47:23;16.50;91.40
23231;DHT22;11784;49.818;8.632;2023-08-07T05:49:48;16.60;91.10
23231;DHT22;11784;49.818;8.632;2023-08-07T05:52:14;16.60;91.10
23231;DHT22;11784;49.818;8.632;2023-08-07T05:54:40;16.60;90.60
23231;DHT22;11784;49.818;8.632;2023-08-07T05:57:06;16.60;90.40
23231;DHT22;11784;49.818;8.632;2023-08-07T05:59:31;16.60;90.80
23231;DHT22;11784;49.818;8.632;2023-08-07T06:01:59;16.60;90.80
23231;DHT22;11784;49.818;8.632;2023-08-07T06:04:25;16.60;90.90
23231;DHT22;11784;49.818;8.632;2023-08-07T06:06:51;16.50;90.50
23231;DHT22;11784;49.818;8.632;2023-08-07T06:09:16;16.60;90.80
23231;DHT22;11784;49.818;8.632;2023-08-07T06:11:42;16.60;90.90
23231;DHT22;11784;49.818;8.632;2023-08-07T06:14:07;16.60;90.50
23231;DHT22;11784;49.818;8.632;2023-08-07T06:16:33;16.60;90.50
23231;DHT22;11784;49.818;8.632;2023-08-07T06:18:59;16.60;90.40
23231;DHT22;11784;49.818;8.632;2023-08-07T06:21:24;16.60;90.30
23231;DHT22;11784;49.818;8.632;2023-08-07T06:23:50;16.60;90.40
23231;DHT22;11784;49.818;8.632;2023-08-07T06:26:16;16.60;90.40
23231;DHT22;11784;49.818;8.632;2023-08-07T06:28:42;16.60;90.40
23231;DHT22;11784;49.818;8.632;2023-08-07T06:31:09;16.60;90.70
23231;DHT22;11784;49.818;8.632;2023-08-07T06:33:35;16.50;90.90
23231;DHT22;11784;49.818;8.632;2023-08-07T06:36:02;16.60;90.80
23231;DHT22;11784;49.818;8.632;2023-08-07T06:38:27;16.60;91.00
23231;DHT22;11784;49.818;8.632;2023-08-07T06:40:53;16.60;91.30
23231;DHT22;11784;49.818;8.632;2023-08-07T06:43:18;16.50;91.10
23231;DHT22;11784;49.818;8.632;2023-08-07T06:45:48;16.50;91.40
23231;DHT22;11784;49.818;8.632;2023-08-07T06:48:14;16.50;91.50
23231;DHT22;11784;49.818;8.632;2023-08-07T06:50:39;16.50;91.40
23231;DHT22;11784;49.818;8.632;2023-08-07T06:53:05;16.50;91.60
23231;DHT22;11784;49.818;8.632;2023-08-07T06:55:30;16.50;91.90
23231;DHT22;11784;49.818;8.632;2023-08-07T06:57:56;16.60;92.10
23231;DHT22;11784;49.818;8.632;2023-08-07T07:00:21;16.60;91.90
23231;DHT22;11784;49.818;8.632;2023-08-07T07:02:47;16.60;92.50
23231;DHT22;11784;49.818;8.632;2023-08-07T07:05:12;16.60;92.00
23231;DHT22;11784;49.818;8.632;2023-08-07T07:07:38;16.50;91.90
23231;DHT22;11784;49.818;8.632;2023-08-07T07:10:04;16.50;92.10
23231;DHT22;11784;49.818;8.632;2023-08-07T07:12:30;16.50;92.40
23231;DHT22;11784;49.818;8.632;2023-08-07T07:14:55;16.50;92.40
23231;DHT22;11784;49.818;8.632;2023-08-07T07:17:21;16.50;92.40
23231;DHT22;11784;49.818;8.632;2023-08-07T07:19:47;16.50;92.50
23231;DHT22;11784;49.818;8.632;2023-08-07T07:22:12;16.50;92.60
23231;DHT22;11784;49.818;8.632;2023-08-07T07:24:38;16.50;92.80
23231;DHT22;11784;49.818;8.632;2023-08-07T07:27:04;16.60;92.80
23231;DHT22;11784;49.818;8.632;2023-08-07T07:29:29;16.60;93.10
23231;DHT22;11784;49.818;8.632;2023-08-07T07:31:55;16.60;93.00
23231;DHT22;11784;49.818;8.632;2023-08-07T07:34:21;16.70;92.70
23231;DHT22;11784;49.818;8.632;2023-08-07T07:36:47;16.70;93.10
23231;DHT22;11784;49.818;8.632;2023-08-07T07:39:12;16.70;93.10
23231;DHT22;11784;49.818;8.632;2023-08-07T07:41:38;16.70;93.60
23231;DHT22;11784;49.818;8.632;2023-08-07T07:44:04;16.70;92.90
23231;DHT22;11784;49.818;8.632;2023-08-07T07:46:29;16.70;92.70
23231;DHT22;11784;49.818;8.632;2023-08-07T07:48:57;16.80;93.10
23231;DHT22;11784;49.818;8.632;2023-08-07T07:51:22;16.80;92.50
23231;DHT22;11784;49.818;8.632;2023-08-07T07:53:48;16.80;92.80
23231;DHT22;11784;49.818;8.632;2023-08-07T07:56:14;16.80;92.70
23231;DHT22;11784;49.818;8.632;2023-08-07T07:58:39;16.80;92.30
23231;DHT22;11784;49.818;8.632;2023-08-07T08:01:06;16.80;91.90
23231;DHT22;11784;49.818;8.632;2023-08-07T08:03:32;16.80;92.00
23231;DHT22;11784;49.818;8.632;2023-08-07T08:05:57;16.80;92.30
23231;DHT22;11784;49.818;8.632;2023-08-07T08:08:23;16.80;92.40
23231;DHT22;11784;49.818;8.632;2023-08-07T08:10:49;16.80;92.70
23231;DHT22;11784;49.818;8.632;2023-08-07T08:13:16;16.80;92.60
23231;DHT22;11784;49.818;8.632;2023-08-07T08:15:42;16.80;92.80
23231;DHT22;11784;49.818;8.632;2023-08-07T08:18:08;16.90;92.70
23231;DHT22;11784;49.818;8.632;2023-08-07T08:20:34;16.90;92.60
23231;DHT22;11784;49.818;8.632;2023-08-07T08:22:59;17.00;92.30
23231;DHT22;11784;49.818;8.632;2023-08-07T08:25:25;17.00;92.20
23231;DHT22;11784;49.818;8.632;2023-08-07T08:27:50;17.00;92.20
23231;DHT22;11784;49.818;8.632;2023-08-07T08:30:16;17.00;92.00
23231;DHT22;11784;49.818;8.632;2023-08-07T08:32:43;17.10;92.00
23231;DHT22;11784;49.818;8.632;2023-08-07T08:35:08;17.10;91.70
23231;DHT22;11784;49.818;8.632;2023-08-07T08:37:34;17.10;91.20
23231;DHT22;11784;49.818;8.632;2023-08-07T08:40:00;17.10;91.20
23231;DHT22;11784;49.818;8.632;2023-08-07T08:42:26;17.10;90.60
23231;DHT22;11784;49.818;8.632;2023-08-07T08:44:53;17.10;90.30
23231;DHT22;11784;49.818;8.632;2023-08-07T08:47:20;17.00;90.80
23231;DHT22;11784;49.818;8.632;2023-08-07T08:49:51;17.00;90.60
23231;DHT22;11784;49.818;8.632;2023-08-07T08:52:19;16.90;90.90
23231;DHT22;11784;49.818;8.632;2023-08-07T08:54:47;16.90;90.90
23231;DHT22;11784;49.818;8.632;2023-08-07T08:57:13;16.90;91.00
23231;DHT22;11784;49.818;8.632;2023-08-07T08:59:40;16.90;90.80
23231;DHT22;11784;49.818;8.632;2023-08-07T09:02:08;16.90;90.60
23231;DHT22;11784;49.818;8.632;2023-08-07T09:04:33;16.80;90.70
23231;DHT22;11784;49.818;8.632;2023-08-07T09:07:00;16.80;91.10
23231;DHT22;11784;49.818;8.632;2023-08-07T09:09:33;16.80;91.60
23231;DHT22;11784;49.818;8.632;2023-08-07T09:12:00;16.80;91.80
23231;DHT22;11784;49.818;8.632;2023-08-07T09:14:27;16.80;92.10
23231;DHT22;11784;49.818;8.632;2023-08-07T09:16:59;16.80;91.80
23231;DHT22;11784;49.818;8.632;2023-08-07T09:19:26;16.90;91.60
23231;DHT22;11784;49.818;8.632;2023-08-07T09:21:51;16.90;91.40
23231;DHT22;11784;49.818;8.632;2023-08-07T09:24:17;16.90;91.80
23231;DHT22;11784;49.818;8.632;2023-08-07T09:26:44;16.90;91.60
23231;DHT22;11784;49.818;8.632;2023-08-07T09:29:09;16.90;91.60
23231;DHT22;11784;49.818;8.632;2023-08-07T09:31:36;16.90;91.90
23231;DHT22;11784;49.818;8.632;2023-08-07T09:34:03;16.90;92.00
23231;DHT22;11784;49.818;8.632;2023-08-07T09:36:31;17.00;92.20
23231;DHT22;11784;49.818;8.632;2023-08-07T09:39:00;17.00;91.80
23231;DHT22;11784;49.818;8.632;2023-08-07T09:41:27;17.00;91.40
23231;DHT22;11784;49.818;8.632;2023-08-07T09:43:54;17.00;91.70
23231;DHT22;11784;49.818;8.632;2023-08-07T09:46:19;17.00;92.00
23231;DHT22;11784;49.818;8.632;2023-08-07T09:48:45;17.00;91.90
23231;DHT22;11784;49.818;8.632;2023-08-07T09:51:11;17.00;92.00
23231;DHT22;11784;49.818;8.632;2023-08-07T09:53:37;17.00;92.50
23231;DHT22;11784;49.818;8.632;2023-08-07T09:56:02;17.00;93.00
23231;DHT22;11784;49.818;8.632;2023-08-07T09:58:29;17.00;93.30
23231;DHT22;11784;49.818;8.632;2023-08-07T10:00:55;17.00;93.50
23231;DHT22;11784;49.818;8.632;2023-08-07T10:03:27;17.00;93.20
23231;DHT22;11784;49.818;8.632;2023-08-07T10:05:54;16.90;93.50
23231;DHT22;11784;49.818;8.632;2023-08-07T10:08:21;16.80;93.60
23231;DHT22;11784;49.818;8.632;2023-08-07T10:10:47;16.70;94.10
23231;DHT22;11784;49.818;8.632;2023-08-07T10:13:13;16.70;94.10
23231;DHT22;11784;49.818;8.632;2023-08-07T10:15:40;16.60;94.60
23231;DHT22;11784;49.818;8.632;2023-08-07T10:18:07;16.60;95.00
23231;DHT22;11784;49.818;8.632;2023-08-07T10:20:34;16.50;95.30
23231;DHT22;11784;49.818;8.632;2023-08-07T10:23:09;16.60;95.00
23231;DHT22;11784;49.818;8.632;2023-08-07T10:25:39;16.60;95.50
23231;DHT22;11784;49.818;8.632;2023-08-07T10:28:09;16.60;95.60
23231;DHT22;11784;49.818;8.632;2023-08-07T10:30:37;16.60;95.90
23231;DHT22;11784;49.818;8.632;2023-08-07T10:33:04;16.60;95.80
23231;DHT22;11784;49.818;8.632;2023-08-07T10:35:32;16.60;95.80
23231;DHT22;11784;49.818;8.632;2023-08-07T10:38:06;16.60;96.00
23231;DHT22;11784;49.818;8.632;2023-08-07T10:40:32;16.60;96.00
23231;DHT22;11784;49.818;8.632;2023-08-07T10:43:14;16.70;96.30
23231;DHT22;11784;49.818;8.632;2023-08-07T10:45:42;16.80;96.30
23231;DHT22;11784;49.818;8.632;2023-08-07T10:48:11;16.80;96.20
23231;DHT22;11784;49.818;8.632;2023-08-07T10:50:51;16.80;96.20
23231;DHT22;11784;49.818;8.632;2023-08-07T10:53:31;16.80;96.30
23231;DHT22;11784;49.818;8.632;2023-08-07T10:58:55;16.90;96.50
23231;DHT22;11784;49.818;8.632;2023-08-07T11:03:58;17.00;96.60
23231;DHT22;11784;49.818;8.632;2023-08-07T11:06:27;17.00;96.30
23231;DHT22;11784;49.818;8.632;2023-08-07T11:08:54;17.00;96.20
23231;DHT22;11784;49.818;8.632;2023-08-07T11:11:20;17.00;96.60
23231;DHT22;11784;49.818;8.632;2023-08-07T11:13:48;17.10;96.90
23231;DHT22;11784;49.818;8.632;2023-08-07T11:16:14;17.10;96.80
23231;DHT22;11784;49.818;8.632;2023-08-07T11:18:40;17.20;96.60
23231;DHT22;11784;49.818;8.632;2023-08-07T11:21:10;17.20;96.90
23231;DHT22;11784;49.818;8.632;2023-08-07T11:23:39;17.30;97.40
23231;DHT22;11784;49.818;8.632;2023-08-07T11:26:04;17.30;96.80
23231;DHT22;11784;49.818;8.632;2023-08-07T11:28:30;17.40;97.00
23231;DHT22;11784;49.818;8.632;2023-08-07T11:30:56;17.40;97.00
23231;DHT22;11784;49.818;8.632;2023-08-07T11:33:23;17.50;97.60
23231;DHT22;11784;49.818;8.632;2023-08-07T11:35:50;17.60;97.70
23231;DHT22;11784;49.818;8.632;2023-08-07T11:38:30;17.70;97.20
23231;DHT22;11784;49.818;8.632;2023-08-07T11:41:03;17.80;96.80
23231;DHT22;11784;49.818;8.632;2023-08-07T11:43:34;17.80;96.50
23231;DHT22;11784;49.818;8.632;2023-08-07T11:46:12;17.80;96.70
23231;DHT22;11784;49.818;8.632;2023-08-07T11:48:39;17.80;96.60
23231;DHT22;11784;49.818;8.632;2023-08-07T11:51:05;17.80;96.30
23231;DHT22;11784;49.818;8.632;2023-08-07T11:53:35;17.80;96.40
23231;DHT22;11784;49.818;8.632;2023-08-07T11:56:04;17.90;96.60
23231;DHT22;11784;49.818;8.632;2023-08-07T11:58:39;17.90;96.40
23231;DHT22;11784;49.818;8.632;2023-08-07T12:01:08;18.00;96.50
23231;DHT22;11784;49.818;8.632;2023-08-07T12:03:51;18.00;96.60
23231;DHT22;11784;49.818;8.632;2023-08-07T12:06:17;18.10;96.40
23231;DHT22;11784;49.818;8.632;2023-08-07T12:08:43;18.00;96.20
23231;DHT22;11784;49.818;8.632;2023-08-07T12:11:12;18.10;96.30
23231;DHT22;11784;49.818;8.632;2023-08-07T12:13:45;18.10;96.10
23231;DHT22;11784;49.818;8.632;2023-08-07T12:16:13;18.10;95.30
23231;DHT22;11784;49.818;8.632;2023-08-07T12:18:50;18.00;95.90
23231;DHT22;11784;49.818;8.632;2023-08-07T12:21:17;18.00;95.90
23231;DHT22;11784;49.818;8.632;2023-08-07T12:23:44;18.00;95.70
23231;DHT22;11784;49.818;8.632;2023-08-07T12:26:13;18.00;96.00
23231;DHT22;11784;49.818;8.632;2023-08-07T12:28:38;18.00;96.10
23231;DHT22;11784;49.818;8.632;2023-08-07T12:31:04;18.00;96.30
23231;DHT22;11784;49.818;8.632;2023-08-07T12:33:29;18.00;96.40
23231;DHT22;11784;49.818;8.632;2023-08-07T12:35:56;18.00;96.50
23231;DHT22;11784;49.818;8.632;2023-08-07T12:38:22;18.00;96.70
23231;DHT22;11784;49.818;8.632;2023-08-07T12:40:47;18.00;96.80
23231;DHT22;11784;49.818;8.632;2023-08-07T12:43:13;18.10;96.70
23231;DHT22;11784;49.818;8.632;2023-08-07T12:45:39;18.00;96.80
23231;DHT22;11784;49.818;8.632;2023-08-07T12:48:04;18.00;96.80
23231;DHT22;11784;49.818;8.632;2023-08-07T12:50:30;18.00;96.90
23231;DHT22;11784;49.818;8.632;2023-08-07T12:52:56;18.10;96.70
23231;DHT22;11784;49.818;8.632;2023-08-07T12:55:22;18.10;97.00
23231;DHT22;11784;49.818;8.632;2023-08-07T12:57:47;18.20;96.80
23231;DHT22;11784;49.818;8.632;2023-08-07T13:00:16;18.20;96.60
23231;DHT22;11784;49.818;8.632;2023-08-07T13:02:44;18.30;96.50
23231;DHT22;11784;49.818;8.632;2023-08-07T13:05:09;18.30;96.60
23231;DHT22;11784;49.818;8.632;2023-08-07T13:07:39;18.40;96.50
23231;DHT22;11784;49.818;8.632;2023-08-07T13:10:05;18.40;96.40
23231;DHT22;11784;49.818;8.632;2023-08-07T13:12:37;18.40;96.20
23231;DHT22;11784;49.818;8.632;2023-08-07T13:15:03;18.50;96.10
23231;DHT22;11784;49.818;8.632;2023-08-07T13:17:30;18.60;95.90
23231;DHT22;11784;49.818;8.632;2023-08-07T13:19:56;18.60;95.40
23231;DHT22;11784;49.818;8.632;2023-08-07T13:22:21;18.70;95.40
23231;DHT22;11784;49.818;8.632;2023-08-07T13:24:47;18.70;95.30
23231;DHT22;11784;49.818;8.632;2023-08-07T13:27:12;18.80;95.20
23231;DHT22;11784;49.818;8.632;2023-08-07T13:29:38;19.00;95.10
23231;DHT22;11784;49.818;8.632;2023-08-07T13:32:04;19.10;94.20
23231;DHT22;11784;49.818;8.632;2023-08-07T13:34:42;19.30;93.60
23231;DHT22;11784;49.818;8.632;2023-08-07T13:37:08;19.50;94.20
23231;DHT22;11784;49.818;8.632;2023-08-07T13:39:33;19.70;93.20
23231;DHT22;11784;49.818;8.632;2023-08-07T13:41:59;19.90;93.20
23231;DHT22;11784;49.818;8.632;2023-08-07T13:44:27;20.00;92.80
23231;DHT22;11784;49.818;8.632;2023-08-07T13:46:54;20.30;92.10
23231;DHT22;11784;49.818;8.632;2023-08-07T13:49:20;20.50;91.30
23231;DHT22;11784;49.818;8.632;2023-08-07T13:51:46;20.50;87.80
23231;DHT22;11784;49.818;8.632;2023-08-07T13:54:12;20.60;88.00
23231;DHT22;11784;49.818;8.632;2023-08-07T13:56:38;20.50;88.70
23231;DHT22;11784;49.818;8.632;2023-08-07T13:59:03;20.50;89.70
23231;DHT22;11784;49.818;8.632;2023-08-07T14:01:32;20.50;90.00
23231;DHT22;11784;49.818;8.632;2023-08-07T14:03:59;20.60;89.70
23231;DHT22;11784;49.818;8.632;2023-08-07T14:06:25;20.70;88.60
23231;DHT22;11784;49.818;8.632;2023-08-07T14:08:50;20.80;88.50
23231;DHT22;11784;49.818;8.632;2023-08-07T14:11:16;20.80;89.20
23231;DHT22;11784;49.818;8.632;2023-08-07T14:13:41;20.80;87.90
23231;DHT22;11784;49.818;8.632;2023-08-07T14:16:07;20.80;87.20
23231;DHT22;11784;49.818;8.632;2023-08-07T14:18:33;20.70;85.90
23231;DHT22;11784;49.818;8.632;2023-08-07T14:20:59;20.70;87.30
23231;DHT22;11784;49.818;8.632;2023-08-07T14:23:24;20.60;86.40
23231;DHT22;11784;49.818;8.632;2023-08-07T14:25:50;20.60;87.00
23231;DHT22;11784;49.818;8.632;2023-08-07T14:28:18;20.60;89.50
23231;DHT22;11784;49.818;8.632;2023-08-07T14:30:44;20.70;88.90
23231;DHT22;11784;49.818;8.632;2023-08-07T14:33:09;20.80;86.90
23231;DHT22;11784;49.818;8.632;2023-08-07T14:35:35;20.90;87.70
23231;DHT22;11784;49.818;8.632;2023-08-07T14:38:00;21.00;86.40
23231;DHT22;11784;49.818;8.632;2023-08-07T14:40:26;21.10;85.30
23231;DHT22;11784;49.818;8.632;2023-08-07T14:42:53;21.20;87.50
23231;DHT22;11784;49.818;8.632;2023-08-07T14:45:21;21.30;83.60
23231;DHT22;11784;49.818;8.632;2023-08-07T14:47:48;21.40;84.90
23231;DHT22;11784;49.818;8.632;2023-08-07T14:50:13;21.40;84.00
23231;DHT22;11784;49.818;8.632;2023-08-07T14:52:40;21.60;82.80
23231;DHT22;11784;49.818;8.632;2023-08-07T14:55:06;21.60;83.30
23231;DHT22;11784;49.818;8.632;2023-08-07T14:57:32;21.60;82.80
23231;DHT22;11784;49.818;8.632;2023-08-07T14:59:58;21.60;82.30
23231;DHT22;11784;49.818;8.632;2023-08-07T15:02:23;21.60;71.10
23231;DHT22;11784;49.818;8.632;2023-08-07T15:04:50;21.50;67.20
23231;DHT22;11784;49.818;8.632;2023-08-07T15:07:16;21.40;65.80
23231;DHT22;11784;49.818;8.632;2023-08-07T15:09:41;21.40;66.60
23231;DHT22;11784;49.818;8.632;2023-08-07T15:12:07;21.40;66.10
23231;DHT22;11784;49.818;8.632;2023-08-07T15:14:33;21.40;63.50
23231;DHT22;11784;49.818;8.632;2023-08-07T15:16:59;21.40;66.20
23231;DHT22;11784;49.818;8.632;2023-08-07T15:19:24;21.40;64.80
23231;DHT22;11784;49.818;8.632;2023-08-07T15:21:50;21.40;63.30
23231;DHT22;11784;49.818;8.632;2023-08-07T15:24:16;21.30;63.20
23231;DHT22;11784;49.818;8.632;2023-08-07T15:26:42;21.30;63.30
23231;DHT22;11784;49.818;8.632;2023-08-07T15:29:07;21.30;62.30
23231;DHT22;11784;49.818;8.632;2023-08-07T15:31:33;21.20;61.90
23231;DHT22;11784;49.818;8.632;2023-08-07T15:33:58;21.20;61.60